sensor_id;sensor_type;location;lat;lon;timestamp;temperature;humidity
40434;DHT22;26146;51.114;5.654;2023-06-04T00:03:38;13.80;92.80
40434;DHT22;26146;51.114;5.654;2023-06-04T00:07:39;13.80;93.20
40434;DHT22;26146;51.114;5.654;2023-06-04T00:11:40;13.70;93.50
40434;DHT22;26146;51.114;5.654;2023-06-04T00:15:41;13.60;93.70
40434;DHT22;26146;51.114;5.654;2023-06-04T00:19:42;13.60;94.00
40434;DHT22;26146;51.114;5.654;2023-06-04T00:23:43;13.40;94.50
40434;DHT22;26146;51.114;5.654;2023-06-04T00:27:46;13.30;94.90
40434;DHT22;26146;51.114;5.654;2023-06-04T00:31:47;13.30;95.10
40434;DHT22;26146;51.114;5.654;2023-06-04T00:35:49;13.20;95.50
40434;DHT22;26146;51.114;5.654;2023-06-04T00:39:50;13.10;95.80
40434;DHT22;26146;51.114;5.654;2023-06-04T00:43:51;13.10;95.90
40434;DHT22;26146;51.114;5.654;2023-06-04T00:47:56;13.10;96.10
40434;DHT22;26146;51.114;5.654;2023-06-04T00:51:58;13.10;96.40
40434;DHT22;26146;51.114;5.654;2023-06-04T00:56:02;13.00;96.50
40434;DHT22;26146;51.114;5.654;2023-06-04T01:00:06;12.90;96.90
40434;DHT22;26146;51.114;5.654;2023-06-04T01:04:31;12.80;96.50
40434;DHT22;26146;51.114;5.654;2023-06-04T01:08:33;12.90;96.30
40434;DHT22;26146;51.114;5.654;2023-06-04T01:12:34;12.90;95.60
40434;DHT22;26146;51.114;5.654;2023-06-04T01:21:03;12.80;95.30
40434;DHT22;26146;51.114;5.654;2023-06-04T01:25:35;12.80;95.30
40434;DHT22;26146;51.114;5.654;2023-06-04T01:29:39;12.80;95.20
40434;DHT22;26146;51.114;5.654;2023-06-04T01:33:40;12.70;95.30
40434;DHT22;26146;51.114;5.654;2023-06-04T01:37:41;12.80;95.30
40434;DHT22;26146;51.114;5.654;2023-06-04T01:41:42;12.70;95.20
40434;DHT22;26146;51.114;5.654;2023-06-04T01:45:43;12.70;95.80
40434;DHT22;26146;51.114;5.654;2023-06-04T01:49:45;12.70;95.70
40434;DHT22;26146;51.114;5.654;2023-06-04T01:53:46;12.60;95.70
40434;DHT22;26146;51.114;5.654;2023-06-04T01:57:47;12.60;95.90
40434;DHT22;26146;51.114;5.654;2023-06-04T02:01:48;12.60;96.10
40434;DHT22;26146;51.114;5.654;2023-06-04T02:05:49;12.60;96.00
40434;DHT22;26146;51.114;5.654;2023-06-04T02:09:50;12.70;95.90
40434;DHT22;26146;51.114;5.654;2023-06-04T02:13:51;12.60;95.80
40434;DHT22;26146;51.114;5.654;2023-06-04T02:17:55;12.50;96.00
40434;DHT22;26146;51.114;5.654;2023-06-04T02:21:58;12.50;96.20
40434;DHT22;26146;51.114;5.654;2023-06-04T02:25:59;12.40;96.40
40434;DHT22;26146;51.114;5.654;2023-06-04T02:30:01;12.50;96.60
40434;DHT22;26146;51.114;5.654;2023-06-04T02:34:04;12.50;96.90
40434;DHT22;26146;51.114;5.654;2023-06-04T02:38:05;12.40;97.00
40434;DHT22;26146;51.114;5.654;2023-06-04T02:42:06;12.40;97.20
40434;DHT22;26146;51.114;5.654;2023-06-04T02:46:10;12.40;97.40
40434;DHT22;26146;51.114;5.654;2023-06-04T02:50:12;12.30;97.70
40434;DHT22;26146;51.114;5.654;2023-06-04T02:54:13;12.30;98.00
40434;DHT22;26146;51.114;5.654;2023-06-04T02:58:14;12.30;98.20
40434;DHT22;26146;51.114;5.654;2023-06-04T03:02:17;12.20;98.70
40434;DHT22;26146;51.114;5.654;2023-06-04T03:06:19;12.00;99.20
40434;DHT22;26146;51.114;5.654;2023-06-04T03:10:23;11.80;99.80
40434;DHT22;26146;51.114;5.654;2023-06-04T03:14:24;11.70;99.90
40434;DHT22;26146;51.114;5.654;2023-06-04T03:18:32;11.80;99.90
40434;DHT22;26146;51.114;5.654;2023-06-04T03:22:34;11.70;99.90
40434;DHT22;26146;51.114;5.654;2023-06-04T03:26:36;11.70;99.90
40434;DHT22;26146;51.114;5.654;2023-06-04T03:30:37;11.70;99.90
40434;DHT22;26146;51.114;5.654;2023-06-04T03:34:41;11.60;99.90
40434;DHT22;26146;51.114;5.654;2023-06-04T03:38:42;11.60;99.90
40434;DHT22;26146;51.114;5.654;2023-06-04T03:42:43;11.50;99.90
40434;DHT22;26146;51.114;5.654;2023-06-04T03:46:45;11.60;99.90
40434;DHT22;26146;51.114;5.654;2023-06-04T03:50:48;11.90;99.90
40434;DHT22;26146;51.114;5.654;2023-06-04T03:54:52;12.80;99.90
40434;DHT22;26146;51.114;5.654;2023-06-04T03:58:53;13.80;99.30
40434;DHT22;26146;51.114;5.654;2023-06-04T04:02:55;14.80;97.40
40434;DHT22;26146;51.114;5.654;2023-06-04T04:06:56;15.90;95.20
40434;DHT22;26146;51.114;5.654;2023-06-04T04:10:57;16.90;93.00
40434;DHT22;26146;51.114;5.654;2023-06-04T04:14:59;16.30;93.20
40434;DHT22;26146;51.114;5.654;2023-06-04T04:19:04;15.30;94.40
40434;DHT22;26146;51.114;5.654;2023-06-04T04:23:08;14.70;95.80
40434;DHT22;26146;51.114;5.654;2023-06-04T04:27:10;14.30;96.70
40434;DHT22;26146;51.114;5.654;2023-06-04T04:31:14;14.10;97.50
40434;DHT22;26146;51.114;5.654;2023-06-04T04:35:15;13.90;98.20
40434;DHT22;26146;51.114;5.654;2023-06-04T04:39:25;13.70;99.00
40434;DHT22;26146;51.114;5.654;2023-06-04T04:43:34;13.70;99.50
40434;DHT22;26146;51.114;5.654;2023-06-04T04:47:36;13.60;99.80
40434;DHT22;26146;51.114;5.654;2023-06-04T04:51:39;13.60;99.90
40434;DHT22;26146;51.114;5.654;2023-06-04T04:55:40;13.60;99.90
40434;DHT22;26146;51.114;5.654;2023-06-04T04:59:44;13.70;99.90
40434;DHT22;26146;51.114;5.654;2023-06-04T05:03:44;13.70;99.90
40434;DHT22;26146;51.114;5.654;2023-06-04T05:07:45;13.70;99.90
40434;DHT22;26146;51.114;5.654;2023-06-04T05:11:46;13.80;99.90
40434;DHT22;26146;51.114;5.654;2023-06-04T05:15:50;14.00;99.90
40434;DHT22;26146;51.114;5.654;2023-06-04T05:19:56;14.10;99.90
40434;DHT22;26146;51.114;5.654;2023-06-04T05:24:14;14.20;99.90
40434;DHT22;26146;51.114;5.654;2023-06-04T05:28:17;14.30;99.90
40434;DHT22;26146;51.114;5.654;2023-06-04T05:32:18;14.40;99.90
40434;DHT22;26146;51.114;5.654;2023-06-04T05:36:20;14.40;99.80
40434;DHT22;26146;51.114;5.654;2023-06-04T05:40:24;14.70;99.80
40434;DHT22;26146;51.114;5.654;2023-06-04T05:44:25;14.70;99.50
40434;DHT22;26146;51.114;5.654;2023-06-04T05:48:26;14.80;99.90
40434;DHT22;26146;51.114;5.654;2023-06-04T05:52:26;14.80;99.60
40434;DHT22;26146;51.114;5.654;2023-06-04T05:56:27;14.90;99.30
40434;DHT22;26146;51.114;5.654;2023-06-04T06:00:28;15.10;99.60
40434;DHT22;26146;51.114;5.654;2023-06-04T06:04:30;15.30;99.10
40434;DHT22;26146;51.114;5.654;2023-06-04T06:08:31;15.60;98.40
40434;DHT22;26146;51.114;5.654;2023-06-04T06:12:32;15.60;97.60
40434;DHT22;26146;51.114;5.654;2023-06-04T06:16:33;15.50;97.80
40434;DHT22;26146;51.114;5.654;2023-06-04T06:20:34;15.70;97.40
40434;DHT22;26146;51.114;5.654;2023-06-04T06:24:35;15.80;96.70
40434;DHT22;26146;51.114;5.654;2023-06-04T06:28:36;15.90;96.30
40434;DHT22;26146;51.114;5.654;2023-06-04T06:32:37;15.70;96.40
40434;DHT22;26146;51.114;5.654;2023-06-04T06:36:38;15.90;96.60
40434;DHT22;26146;51.114;5.654;2023-06-04T06:40:40;16.20;96.40
40434;DHT22;26146;51.114;5.654;2023-06-04T06:44:41;16.40;94.60
40434;DHT22;26146;51.114;5.654;2023-06-04T06:48:42;16.40;94.60
40434;DHT22;26146;51.114;5.654;2023-06-04T06:52:45;16.70;95.30
40434;DHT22;26146;51.114;5.654;2023-06-04T06:56:47;16.70;93.40
40434;DHT22;26146;51.114;5.654;2023-06-04T07:00:49;16.80;94.10
40434;DHT22;26146;51.114;5.654;2023-06-04T07:04:50;16.90;93.00
40434;DHT22;26146;51.114;5.654;2023-06-04T07:08:51;17.10;93.90
40434;DHT22;26146;51.114;5.654;2023-06-04T07:12:53;17.60;92.80
40434;DHT22;26146;51.114;5.654;2023-06-04T07:16:54;17.80;93.30
40434;DHT22;26146;51.114;5.654;2023-06-04T07:20:55;18.00;92.50
40434;DHT22;26146;51.114;5.654;2023-06-04T07:24:56;18.10;91.00
40434;DHT22;26146;51.114;5.654;2023-06-04T07:28:56;18.10;91.60
40434;DHT22;26146;51.114;5.654;2023-06-04T07:32:58;18.20;90.80
40434;DHT22;26146;51.114;5.654;2023-06-04T07:36:59;18.50;90.40
40434;DHT22;26146;51.114;5.654;2023-06-04T07:41:00;18.50;91.50
40434;DHT22;26146;51.114;5.654;2023-06-04T07:45:01;18.60;90.70
40434;DHT22;26146;51.114;5.654;2023-06-04T07:49:02;18.90;90.40
40434;DHT22;26146;51.114;5.654;2023-06-04T07:53:03;18.90;89.40
40434;DHT22;26146;51.114;5.654;2023-06-04T07:57:04;19.00;88.90
40434;DHT22;26146;51.114;5.654;2023-06-04T08:01:05;19.10;90.70
40434;DHT22;26146;51.114;5.654;2023-06-04T08:05:09;19.20;89.70
40434;DHT22;26146;51.114;5.654;2023-06-04T08:09:10;19.20;88.10
40434;DHT22;26146;51.114;5.654;2023-06-04T08:13:12;19.20;86.90
40434;DHT22;26146;51.114;5.654;2023-06-04T08:17:13;19.40;87.30
40434;DHT22;26146;51.114;5.654;2023-06-04T08:21:14;19.40;86.10
40434;DHT22;26146;51.114;5.654;2023-06-04T08:25:30;19.50;86.90
40434;DHT22;26146;51.114;5.654;2023-06-04T08:29:34;19.80;84.70
40434;DHT22;26146;51.114;5.654;2023-06-04T08:33:39;19.80;85.40
40434;DHT22;26146;51.114;5.654;2023-06-04T08:37:40;20.00;84.80
40434;DHT22;26146;51.114;5.654;2023-06-04T08:41:44;20.00;84.20
40434;DHT22;26146;51.114;5.654;2023-06-04T08:45:49;20.00;84.80
40434;DHT22;26146;51.114;5.654;2023-06-04T08:49:52;20.00;83.50
40434;DHT22;26146;51.114;5.654;2023-06-04T08:53:54;20.10;82.00
40434;DHT22;26146;51.114;5.654;2023-06-04T08:57:56;20.30;83.10
40434;DHT22;26146;51.114;5.654;2023-06-04T09:02:00;20.50;80.50
40434;DHT22;26146;51.114;5.654;2023-06-04T09:06:02;20.70;82.50
40434;DHT22;26146;51.114;5.654;2023-06-04T09:10:04;20.70;80.20
40434;DHT22;26146;51.114;5.654;2023-06-04T09:14:08;21.00;79.50
40434;DHT22;26146;51.114;5.654;2023-06-04T09:18:12;21.10;76.40
40434;DHT22;26146;51.114;5.654;2023-06-04T09:22:13;21.30;77.60
40434;DHT22;26146;51.114;5.654;2023-06-04T09:26:14;21.10;76.50
40434;DHT22;26146;51.114;5.654;2023-06-04T09:30:15;21.30;76.60
40434;DHT22;26146;51.114;5.654;2023-06-04T09:34:27;21.30;77.30
40434;DHT22;26146;51.114;5.654;2023-06-04T09:38:38;21.40;76.50
40434;DHT22;26146;51.114;5.654;2023-06-04T09:42:57;21.40;74.80
40434;DHT22;26146;51.114;5.654;2023-06-04T09:46:58;21.70;75.40
40434;DHT22;26146;51.114;5.654;2023-06-04T09:51:09;22.00;73.70
40434;DHT22;26146;51.114;5.654;2023-06-04T09:55:17;22.10;70.70
40434;DHT22;26146;51.114;5.654;2023-06-04T09:59:22;22.10;71.50
40434;DHT22;26146;51.114;5.654;2023-06-04T10:03:24;22.10;71.10
40434;DHT22;26146;51.114;5.654;2023-06-04T10:07:29;22.20;71.40
40434;DHT22;26146;51.114;5.654;2023-06-04T10:11:57;22.10;69.70
40434;DHT22;26146;51.114;5.654;2023-06-04T10:16:00;22.00;70.30
40434;DHT22;26146;51.114;5.654;2023-06-04T10:20:04;22.10;70.60
40434;DHT22;26146;51.114;5.654;2023-06-04T10:24:07;21.90;69.50
40434;DHT22;26146;51.114;5.654;2023-06-04T10:28:08;22.20;71.30
40434;DHT22;26146;51.114;5.654;2023-06-04T10:32:09;22.30;69.00
40434;DHT22;26146;51.114;5.654;2023-06-04T10:36:20;22.70;70.40
40434;DHT22;26146;51.114;5.654;2023-06-04T10:40:33;22.80;70.30
40434;DHT22;26146;51.114;5.654;2023-06-04T10:44:48;22.90;68.60
40434;DHT22;26146;51.114;5.654;2023-06-04T10:48:51;22.90;68.20
40434;DHT22;26146;51.114;5.654;2023-06-04T10:52:53;22.90;68.00
40434;DHT22;26146;51.114;5.654;2023-06-04T10:56:55;23.00;68.60
40434;DHT22;26146;51.114;5.654;2023-06-04T11:00:56;22.90;68.00
40434;DHT22;26146;51.114;5.654;2023-06-04T11:09:13;22.90;66.40
40434;DHT22;26146;51.114;5.654;2023-06-04T11:13:26;23.10;67.90
40434;DHT22;26146;51.114;5.654;2023-06-04T11:17:27;23.20;65.70
40434;DHT22;26146;51.114;5.654;2023-06-04T11:21:28;23.00;67.90
40434;DHT22;26146;51.114;5.654;2023-06-04T11:25:30;23.30;64.50
40434;DHT22;26146;51.114;5.654;2023-06-04T11:29:33;23.30;65.80
40434;DHT22;26146;51.114;5.654;2023-06-04T11:33:44;23.30;65.00
40434;DHT22;26146;51.114;5.654;2023-06-04T11:37:56;23.30;64.80
40434;DHT22;26146;51.114;5.654;2023-06-04T11:41:57;23.40;65.30
40434;DHT22;26146;51.114;5.654;2023-06-04T11:46:05;23.50;65.40
40434;DHT22;26146;51.114;5.654;2023-06-04T11:50:07;23.70;65.80
40434;DHT22;26146;51.114;5.654;2023-06-04T11:54:08;23.70;64.30
40434;DHT22;26146;51.114;5.654;2023-06-04T11:58:12;23.50;62.00
40434;DHT22;26146;51.114;5.654;2023-06-04T12:02:18;23.60;64.80
40434;DHT22;26146;51.114;5.654;2023-06-04T12:06:22;23.80;66.40
40434;DHT22;26146;51.114;5.654;2023-06-04T12:10:23;24.10;63.40
40434;DHT22;26146;51.114;5.654;2023-06-04T12:14:24;23.90;65.30
40434;DHT22;26146;51.114;5.654;2023-06-04T12:18:25;24.00;64.50
40434;DHT22;26146;51.114;5.654;2023-06-04T12:22:26;23.90;64.90
40434;DHT22;26146;51.114;5.654;2023-06-04T12:26:27;23.90;64.10
40434;DHT22;26146;51.114;5.654;2023-06-04T12:30:37;23.80;63.50
40434;DHT22;26146;51.114;5.654;2023-06-04T12:34:39;23.70;62.00
40434;DHT22;26146;51.114;5.654;2023-06-04T12:38:41;23.80;62.60
40434;DHT22;26146;51.114;5.654;2023-06-04T12:42:44;23.90;63.90
40434;DHT22;26146;51.114;5.654;2023-06-04T12:46:45;23.90;62.40
40434;DHT22;26146;51.114;5.654;2023-06-04T12:50:46;24.00;61.70
40434;DHT22;26146;51.114;5.654;2023-06-04T12:54:48;23.90;60.30
40434;DHT22;26146;51.114;5.654;2023-06-04T12:58:51;23.80;61.30
40434;DHT22;26146;51.114;5.654;2023-06-04T13:02:54;23.80;60.90
40434;DHT22;26146;51.114;5.654;2023-06-04T13:06:58;24.00;59.90
40434;DHT22;26146;51.114;5.654;2023-06-04T13:11:00;24.20;61.10
40434;DHT22;26146;51.114;5.654;2023-06-04T13:15:04;24.10;60.90
40434;DHT22;26146;51.114;5.654;2023-06-04T13:19:06;24.10;60.10
40434;DHT22;26146;51.114;5.654;2023-06-04T13:23:07;24.10;60.40
40434;DHT22;26146;51.114;5.654;2023-06-04T13:27:08;24.10;59.70
40434;DHT22;26146;51.114;5.654;2023-06-04T13:31:11;24.10;60.40
40434;DHT22;26146;51.114;5.654;2023-06-04T13:35:15;24.00;58.20
40434;DHT22;26146;51.114;5.654;2023-06-04T13:39:15;24.20;59.40
40434;DHT22;26146;51.114;5.654;2023-06-04T13:43:21;24.40;60.00
40434;DHT22;26146;51.114;5.654;2023-06-04T13:47:22;24.40;60.50
40434;DHT22;26146;51.114;5.654;2023-06-04T13:51:23;24.50;59.90
40434;DHT22;26146;51.114;5.654;2023-06-04T13:55:23;24.50;61.20
40434;DHT22;26146;51.114;5.654;2023-06-04T13:59:26;24.50;60.20
40434;DHT22;26146;51.114;5.654;2023-06-04T14:03:30;24.40;59.10
40434;DHT22;26146;51.114;5.654;2023-06-04T14:07:31;24.50;59.80
40434;DHT22;26146;51.114;5.654;2023-06-04T14:11:32;24.50;59.60
40434;DHT22;26146;51.114;5.654;2023-06-04T14:15:37;24.60;58.80
40434;DHT22;26146;51.114;5.654;2023-06-04T14:19:40;24.50;58.50
40434;DHT22;26146;51.114;5.654;2023-06-04T14:23:41;24.60;58.60
40434;DHT22;26146;51.114;5.654;2023-06-04T14:27:45;24.40;59.70
40434;DHT22;26146;51.114;5.654;2023-06-04T14:31:46;24.60;59.00
40434;DHT22;26146;51.114;5.654;2023-06-04T14:35:49;24.60;57.50
40434;DHT22;26146;51.114;5.654;2023-06-04T14:39:50;24.60;58.10
40434;DHT22;26146;51.114;5.654;2023-06-04T14:43:53;24.60;57.00
40434;DHT22;26146;51.114;5.654;2023-06-04T14:47:54;24.40;56.70
40434;DHT22;26146;51.114;5.654;2023-06-04T14:51:55;24.40;56.90
40434;DHT22;26146;51.114;5.654;2023-06-04T14:55:56;24.50;57.50
40434;DHT22;26146;51.114;5.654;2023-06-04T14:59:56;24.40;57.20
40434;DHT22;26146;51.114;5.654;2023-06-04T15:03:57;24.40;57.30
40434;DHT22;26146;51.114;5.654;2023-06-04T15:07:59;24.40;57.60
40434;DHT22;26146;51.114;5.654;2023-06-04T15:12:02;24.50;56.20
40434;DHT22;26146;51.114;5.654;2023-06-04T15:16:05;24.40;57.40
40434;DHT22;26146;51.114;5.654;2023-06-04T15:20:06;24.60;57.30
40434;DHT22;26146;51.114;5.654;2023-06-04T15:24:07;24.80;57.40
40434;DHT22;26146;51.114;5.654;2023-06-04T15:28:12;24.90;55.80
40434;DHT22;26146;51.114;5.654;2023-06-04T15:32:15;24.90;56.50
40434;DHT22;26146;51.114;5.654;2023-06-04T15:36:17;24.40;57.50
40434;DHT22;26146;51.114;5.654;2023-06-04T15:40:19;24.50;57.20
40434;DHT22;26146;51.114;5.654;2023-06-04T15:44:19;24.50;56.20
40434;DHT22;26146;51.114;5.654;2023-06-04T15:48:20;24.50;57.10
40434;DHT22;26146;51.114;5.654;2023-06-04T15:52:22;24.70;55.70
40434;DHT22;26146;51.114;5.654;2023-06-04T15:56:25;24.60;58.00
40434;DHT22;26146;51.114;5.654;2023-06-04T16:00:28;24.60;58.10
40434;DHT22;26146;51.114;5.654;2023-06-04T16:04:28;24.50;58.30
40434;DHT22;26146;51.114;5.654;2023-06-04T16:08:32;24.50;57.30
40434;DHT22;26146;51.114;5.654;2023-06-04T16:12:33;24.50;57.70
40434;DHT22;26146;51.114;5.654;2023-06-04T16:16:33;24.40;57.80
40434;DHT22;26146;51.114;5.654;2023-06-04T16:20:35;24.70;56.00
40434;DHT22;26146;51.114;5.654;2023-06-04T16:24:38;24.40;57.50
40434;DHT22;26146;51.114;5.654;2023-06-04T16:28:40;24.50;58.90
40434;DHT22;26146;51.114;5.654;2023-06-04T16:32:41;24.50;60.40
40434;DHT22;26146;51.114;5.654;2023-06-04T16:36:42;24.60;59.70
40434;DHT22;26146;51.114;5.654;2023-06-04T16:40:45;24.50;61.00
40434;DHT22;26146;51.114;5.654;2023-06-04T16:44:46;24.50;59.50
40434;DHT22;26146;51.114;5.654;2023-06-04T16:48:47;24.30;60.70
40434;DHT22;26146;51.114;5.654;2023-06-04T16:52:48;24.30;60.40
40434;DHT22;26146;51.114;5.654;2023-06-04T16:56:49;24.10;60.40
40434;DHT22;26146;51.114;5.654;2023-06-04T17:00:50;24.20;61.10
40434;DHT22;26146;51.114;5.654;2023-06-04T17:04:51;24.20;60.20
40434;DHT22;26146;51.114;5.654;2023-06-04T17:08:52;24.20;61.10
40434;DHT22;26146;51.114;5.654;2023-06-04T17:12:55;24.30;60.00
40434;DHT22;26146;51.114;5.654;2023-06-04T17:16:56;24.30;61.50
40434;DHT22;26146;51.114;5.654;2023-06-04T17:20:57;24.40;62.40
40434;DHT22;26146;51.114;5.654;2023-06-04T17:25:00;24.20;62.10
40434;DHT22;26146;51.114;5.654;2023-06-04T17:29:04;24.10;61.60
40434;DHT22;26146;51.114;5.654;2023-06-04T17:33:05;24.10;62.20
40434;DHT22;26146;51.114;5.654;2023-06-04T17:37:06;24.00;62.00
40434;DHT22;26146;51.114;5.654;2023-06-04T17:41:07;23.80;62.70
40434;DHT22;26146;51.114;5.654;2023-06-04T17:45:10;23.80;62.40
40434;DHT22;26146;51.114;5.654;2023-06-04T17:49:10;23.80;62.20
40434;DHT22;26146;51.114;5.654;2023-06-04T17:53:13;23.80;62.50
40434;DHT22;26146;51.114;5.654;2023-06-04T17:57:14;23.60;62.60
40434;DHT22;26146;51.114;5.654;2023-06-04T18:01:15;23.60;63.00
40434;DHT22;26146;51.114;5.654;2023-06-04T18:05:16;23.60;62.70
40434;DHT22;26146;51.114;5.654;2023-06-04T18:09:22;23.50;62.60
40434;DHT22;26146;51.114;5.654;2023-06-04T18:13:25;23.50;62.40
40434;DHT22;26146;51.114;5.654;2023-06-04T18:17:26;23.40;63.10
40434;DHT22;26146;51.114;5.654;2023-06-04T18:21:32;23.40;63.10
40434;DHT22;26146;51.114;5.654;2023-06-04T18:25:33;23.50;63.60
40434;DHT22;26146;51.114;5.654;2023-06-04T18:29:33;23.50;62.90
40434;DHT22;26146;51.114;5.654;2023-06-04T18:33:34;23.30;63.60
40434;DHT22;26146;51.114;5.654;2023-06-04T18:37:40;23.30;64.30
40434;DHT22;26146;51.114;5.654;2023-06-04T18:41:41;23.10;64.60
40434;DHT22;26146;51.114;5.654;2023-06-04T18:45:44;23.00;65.00
40434;DHT22;26146;51.114;5.654;2023-06-04T18:49:47;23.00;65.30
40434;DHT22;26146;51.114;5.654;2023-06-04T18:53:48;22.90;65.20
40434;DHT22;26146;51.114;5.654;2023-06-04T18:57:49;22.80;65.50
40434;DHT22;26146;51.114;5.654;2023-06-04T19:01:53;22.80;66.00
40434;DHT22;26146;51.114;5.654;2023-06-04T19:05:55;22.70;66.40
40434;DHT22;26146;51.114;5.654;2023-06-04T19:09:57;22.60;66.60
40434;DHT22;26146;51.114;5.654;2023-06-04T19:13:58;22.50;66.90
40434;DHT22;26146;51.114;5.654;2023-06-04T19:18:02;22.20;67.60
40434;DHT22;26146;51.114;5.654;2023-06-04T19:22:05;22.30;67.60
40434;DHT22;26146;51.114;5.654;2023-06-04T19:26:06;22.30;67.90
40434;DHT22;26146;51.114;5.654;2023-06-04T19:30:07;22.10;68.40
40434;DHT22;26146;51.114;5.654;2023-06-04T19:34:10;22.00;68.80
40434;DHT22;26146;51.114;5.654;2023-06-04T19:38:11;21.90;69.10
40434;DHT22;26146;51.114;5.654;2023-06-04T19:42:12;21.60;69.60
40434;DHT22;26146;51.114;5.654;2023-06-04T19:46:13;21.60;69.90
40434;DHT22;26146;51.114;5.654;2023-06-04T19:50:14;21.50;70.20
40434;DHT22;26146;51.114;5.654;2023-06-04T19:54:15;21.40;70.60
40434;DHT22;26146;51.114;5.654;2023-06-04T19:58:16;21.30;70.70
40434;DHT22;26146;51.114;5.654;2023-06-04T20:02:16;21.20;71.00
40434;DHT22;26146;51.114;5.654;2023-06-04T20:06:20;21.10;71.10
40434;DHT22;26146;51.114;5.654;2023-06-04T20:10:21;21.00;71.70
40434;DHT22;26146;51.114;5.654;2023-06-04T20:14:22;20.80;72.30
40434;DHT22;26146;51.114;5.654;2023-06-04T20:18:25;20.70;72.80
40434;DHT22;26146;51.114;5.654;2023-06-04T20:22:29;20.60;72.90
40434;DHT22;26146;51.114;5.654;2023-06-04T20:26:30;20.40;73.30
40434;DHT22;26146;51.114;5.654;2023-06-04T20:30:35;20.40;73.70
40434;DHT22;26146;51.114;5.654;2023-06-04T20:34:36;20.30;74.00
40434;DHT22;26146;51.114;5.654;2023-06-04T20:38:37;20.30;74.30
40434;DHT22;26146;51.114;5.654;2023-06-04T20:42:39;20.10;74.60
40434;DHT22;26146;51.114;5.654;2023-06-04T20:46:40;20.00;75.20
40434;DHT22;26146;51.114;5.654;2023-06-04T20:50:43;19.90;75.40
40434;DHT22;26146;51.114;5.654;2023-06-04T20:54:45;19.80;75.80
40434;DHT22;26146;51.114;5.654;2023-06-04T20:58:46;19.60;76.40
40434;DHT22;26146;51.114;5.654;2023-06-04T21:02:48;19.50;76.90
40434;DHT22;26146;51.114;5.654;2023-06-04T21:06:51;19.40;77.20
40434;DHT22;26146;51.114;5.654;2023-06-04T21:10:52;19.50;77.50
40434;DHT22;26146;51.114;5.654;2023-06-04T21:14:53;19.30;78.10
40434;DHT22;26146;51.114;5.654;2023-06-04T21:18:54;19.30;78.80
40434;DHT22;26146;51.114;5.654;2023-06-04T21:23:00;19.40;79.20
40434;DHT22;26146;51.114;5.654;2023-06-04T21:27:01;19.20;79.80
40434;DHT22;26146;51.114;5.654;2023-06-04T21:31:04;19.10;80.50
40434;DHT22;26146;51.114;5.654;2023-06-04T21:35:08;19.10;80.50
40434;DHT22;26146;51.114;5.654;2023-06-04T21:39:09;19.10;81.00
40434;DHT22;26146;51.114;5.654;2023-06-04T21:43:10;18.90;82.50
40434;DHT22;26146;51.114;5.654;2023-06-04T21:47:14;18.90;84.00
40434;DHT22;26146;51.114;5.654;2023-06-04T21:51:15;18.70;85.60
40434;DHT22;26146;51.114;5.654;2023-06-04T21:55:15;18.60;86.90
40434;DHT22;26146;51.114;5.654;2023-06-04T21:59:19;18.50;88.30
40434;DHT22;26146;51.114;5.654;2023-06-04T22:03:20;18.50;89.60
40434;DHT22;26146;51.114;5.654;2023-06-04T22:07:24;18.30;90.50
40434;DHT22;26146;51.114;5.654;2023-06-04T22:11:27;18.20;91.00
40434;DHT22;26146;51.114;5.654;2023-06-04T22:15:28;18.20;91.00
40434;DHT22;26146;51.114;5.654;2023-06-04T22:19:29;18.10;91.40
40434;DHT22;26146;51.114;5.654;2023-06-04T22:23:31;18.00;92.20
40434;DHT22;26146;51.114;5.654;2023-06-04T22:27:31;18.00;93.40
40434;DHT22;26146;51.114;5.654;2023-06-04T22:31:33;17.90;94.10
40434;DHT22;26146;51.114;5.654;2023-06-04T22:35:34;17.80;95.50
40434;DHT22;26146;51.114;5.654;2023-06-04T22:39:35;17.60;96.10
40434;DHT22;26146;51.114;5.654;2023-06-04T22:43:36;17.60;96.60
40434;DHT22;26146;51.114;5.654;2023-06-04T22:47:37;17.60;97.10
40434;DHT22;26146;51.114;5.654;2023-06-04T22:51:38;17.50;97.50
40434;DHT22;26146;51.114;5.654;2023-06-04T22:55:39;17.40;98.10
40434;DHT22;26146;51.114;5.654;2023-06-04T22:59:40;17.30;98.90
40434;DHT22;26146;51.114;5.654;2023-06-04T23:03:41;17.30;99.40
40434;DHT22;26146;51.114;5.654;2023-06-04T23:07:42;17.20;99.90
40434;DHT22;26146;51.114;5.654;2023-06-04T23:11:43;17.10;99.90
40434;DHT22;26146;51.114;5.654;2023-06-04T23:15:46;16.90;99.90
40434;DHT22;26146;51.114;5.654;2023-06-04T23:19:47;17.00;99.90
40434;DHT22;26146;51.114;5.654;2023-06-04T23:23:48;16.80;99.90
40434;DHT22;26146;51.114;5.654;2023-06-04T23:27:49;16.70;99.90
40434;DHT22;26146;51.114;5.654;2023-06-04T23:31:50;16.70;99.90
40434;DHT22;26146;51.114;5.654;2023-06-04T23:35:51;16.70;99.90
40434;DHT22;26146;51.114;5.654;2023-06-04T23:39:52;16.60;99.90
40434;DHT22;26146;51.114;5.654;2023-06-04T23:43:53;16.40;99.90
40434;DHT22;26146;51.114;5.654;2023-06-04T23:47:54;16.30;99.90
40434;DHT22;26146;51.114;5.654;2023-06-04T23:51:55;16.20;99.90
40434;DHT22;26146;51.114;5.654;2023-06-04T23:55:56;16.10;99.90
40434;DHT22;26146;51.114;5.654;2023-06-04T23:59:57;16.00;99.90
